Time;durP1;ratioP1;P1;durP2;ratioP2;P2;SDS_P1;SDS_P2;PMS_P1;PMS_P2;Temp;Humidity;BMP_temperature;BMP_pressure;BME280_temperature;BME280_humidity;BME280_pressure;Samples;Min_cycle;Max_cycle;Signal;HPM_P1;HPM_P2
2024/02/08 08:31:16;;;;;;;7.93;2.67;;;4.80;99.90;;;;;;4916004;29;20218;-75
2024/02/08 08:34:45;;;;;;;9.90;3.60;;;4.70;99.90;;;;;;4913971;29;20226;-71
2024/02/08 08:36:57;;;;;;;7.77;2.03;;;4.70;99.90;;;;;;4898506;29;20597;-76
2024/02/08 08:42:16;;;;;;;5.27;2.17;;;4.80;99.90;;;;;;4880755;29;20578;-73
2024/02/08 08:44:48;;;;;;;7.10;2.53;;;4.80;99.90;;;;;;4890706;29;20233;-74
2024/02/08 08:47:17;;;;;;;5.33;2.20;;;4.90;99.90;;;;;;4899159;29;20246;-73
2024/02/08 08:49:44;;;;;;;4.10;1.60;;;4.80;99.90;;;;;;4888263;29;20215;-74
2024/02/08 08:52:23;;;;;;;3.63;1.40;;;4.80;99.90;;;;;;4884798;29;20203;-72
2024/02/08 08:54:56;;;;;;;5.73;1.57;;;4.80;99.90;;;;;;4898691;29;20307;-74
2024/02/08 08:57:25;;;;;;;3.93;1.83;;;4.80;99.90;;;;;;4899043;29;20260;-74
2024/02/08 08:59:52;;;;;;;3.63;1.27;;;4.90;99.90;;;;;;4881441;29;20204;-74
2024/02/08 09:02:21;;;;;;;4.77;1.60;;;4.90;99.90;;;;;;4880251;29;20264;-73
2024/02/08 09:04:47;;;;;;;6.17;2.50;;;4.90;99.90;;;;;;4891312;29;20232;-71
2024/02/08 09:07:14;;;;;;;4.13;1.70;;;4.90;99.90;;;;;;4898740;29;20238;-72
2024/02/08 09:10:00;;;;;;;4.37;1.43;;;4.90;99.90;;;;;;4883059;29;20207;-73
2024/02/08 09:12:36;;;;;;;6.27;1.90;;;4.90;99.90;;;;;;4879746;29;20683;-72
2024/02/08 09:15:19;;;;;;;5.53;2.30;;;5.00;99.90;;;;;;4879869;29;20226;-73
2024/02/08 09:17:58;;;;;;;2.80;1.60;;;5.00;99.90;;;;;;4880036;29;20223;-71
2024/02/08 09:20:28;;;;;;;4.53;1.70;;;5.10;99.90;;;;;;4879895;29;20210;-72
2024/02/08 09:22:57;;;;;;;3.53;1.17;;;5.10;99.90;;;;;;4880072;29;20250;-72
2024/02/08 09:25:25;;;;;;;2.93;1.30;;;5.20;99.90;;;;;;4879722;29;20599;-72
2024/02/08 09:27:56;;;;;;;3.07;1.20;;;5.30;99.90;;;;;;4880160;29;20702;-72
2024/02/08 09:30:38;;;;;;;3.97;1.50;;;5.30;99.90;;;;;;4879877;29;20234;-73
2024/02/08 09:33:14;;;;;;;3.73;1.53;;;5.30;99.90;;;;;;4880464;29;20218;-73
2024/02/08 09:35:44;;;;;;;3.17;1.30;;;5.40;99.90;;;;;;4879844;29;20234;-73
2024/02/08 09:38:18;;;;;;;3.40;1.40;;;5.50;99.90;;;;;;4879784;29;20207;-74
2024/02/08 09:40:50;;;;;;;4.27;1.37;;;5.60;99.90;;;;;;4879080;29;20218;-73
2024/02/08 09:43:18;;;;;;;3.90;1.50;;;5.30;99.90;;;;;;4879985;29;20211;-73
2024/02/08 09:45:46;;;;;;;3.97;1.70;;;5.40;99.90;;;;;;4879263;29;20766;-74
2024/02/08 09:48:25;;;;;;;3.50;1.10;;;5.60;99.90;;;;;;4879704;29;20269;-73
2024/02/08 09:50:59;;;;;;;2.13;0.77;;;5.70;99.90;;;;;;4879568;29;20218;-74
2024/02/08 09:53:29;;;;;;;2.17;1.07;;;5.60;99.90;;;;;;4879612;29;20211;-73
2024/02/08 09:56:01;;;;;;;3.93;1.33;;;5.80;99.90;;;;;;4879445;29;20778;-74
2024/02/08 09:58:34;;;;;;;3.30;1.00;;;5.70;99.90;;;;;;4879828;29;20215;-73
2024/02/08 10:01:00;;;;;;;2.53;1.10;;;5.60;99.90;;;;;;4879447;29;20242;-73
2024/02/08 10:03:36;;;;;;;1.97;1.20;;;5.60;99.90;;;;;;4879292;29;20234;-73
2024/02/08 10:06:12;;;;;;;5.10;1.30;;;5.60;99.90;;;;;;4879503;29;20234;-73
2024/02/08 10:08:54;;;;;;;2.53;0.73;;;5.80;99.90;;;;;;4879592;29;20222;-73
2024/02/08 10:11:23;;;;;;;3.50;1.40;;;6.00;99.90;;;;;;4879405;29;20219;-74
2024/02/08 10:13:56;;;;;;;2.50;1.10;;;5.90;99.90;;;;;;4879346;29;20207;-72
2024/02/08 10:16:29;;;;;;;3.00;1.17;;;5.80;99.90;;;;;;4879277;29;20242;-72
2024/02/08 10:19:02;;;;;;;1.53;0.80;;;5.80;99.90;;;;;;4879388;29;20681;-72
2024/02/08 10:21:29;;;;;;;3.10;0.77;;;5.90;99.90;;;;;;4879496;29;20263;-72
2024/02/08 10:23:59;;;;;;;2.90;1.30;;;5.90;99.90;;;;;;4879189;29;20219;-72
2024/02/08 10:26:27;;;;;;;2.50;0.83;;;5.80;99.90;;;;;;4879123;29;20242;-73
2024/02/08 10:28:56;;;;;;;2.97;1.67;;;5.90;99.90;;;;;;4878893;29;20219;-73
2024/02/08 10:31:24;;;;;;;4.83;1.47;;;5.80;99.90;;;;;;4879072;29;20211;-72
2024/02/08 10:33:57;;;;;;;4.10;1.60;;;5.80;99.90;;;;;;4879076;29;20263;-73
2024/02/08 10:36:35;;;;;;;2.83;1.20;;;5.90;99.90;;;;;;4879267;29;20239;-72
2024/02/08 10:39:08;;;;;;;2.53;1.20;;;6.00;99.90;;;;;;4879034;29;20206;-72
2024/02/08 10:41:38;;;;;;;2.47;1.23;;;6.00;99.90;;;;;;4879225;29;20246;-73
2024/02/08 10:44:06;;;;;;;2.07;1.00;;;6.20;99.90;;;;;;4878723;29;20219;-72
2024/02/08 10:46:42;;;;;;;3.17;1.40;;;6.40;99.90;;;;;;4878829;29;20282;-73
2024/02/08 10:49:10;;;;;;;2.80;1.20;;;6.50;99.90;;;;;;4879071;29;20706;-73
2024/02/08 10:51:43;;;;;;;2.63;1.40;;;6.40;99.90;;;;;;4880669;29;20207;-74
2024/02/08 10:54:15;;;;;;;2.83;1.10;;;6.50;99.90;;;;;;4882777;29;20246;-73
2024/02/08 10:56:48;;;;;;;2.17;1.23;;;6.50;99.90;;;;;;4882531;29;20745;-73
2024/02/08 10:59:38;;;;;;;2.97;1.30;;;6.50;99.90;;;;;;4882629;29;20281;-74
2024/02/08 11:02:08;;;;;;;3.63;1.13;;;6.50;99.90;;;;;;4882360;29;20230;-73
2024/02/08 11:04:40;;;;;;;3.77;1.83;;;6.60;99.90;;;;;;4882617;29;20238;-73
2024/02/08 11:07:17;;;;;;;2.43;1.20;;;6.60;99.90;;;;;;4882553;29;20239;-73
2024/02/08 11:09:45;;;;;;;4.57;1.77;;;6.60;99.90;;;;;;4882554;29;20214;-73
2024/02/08 11:12:21;;;;;;;5.73;2.57;;;6.70;99.90;;;;;;4882333;29;20207;-73
2024/02/08 11:14:53;;;;;;;3.20;1.17;;;6.70;99.90;;;;;;4882189;29;20589;-73
2024/02/08 11:17:23;;;;;;;2.40;1.23;;;7.00;99.90;;;;;;4882384;29;20215;-73
2024/02/08 11:19:56;;;;;;;6.00;1.50;;;7.00;99.90;;;;;;4882385;29;20211;-73
2024/02/08 11:22:34;;;;;;;4.17;1.40;;;7.30;99.90;;;;;;4882298;29;20222;-73
2024/02/08 11:28:11;;;;;;;2.43;1.20;;;7.40;99.90;;;;;;5151909;27;20555;-73
2024/02/08 11:30:39;;;;;;;2.17;1.07;;;7.60;99.90;;;;;;5151565;27;20203;-73
2024/02/08 11:33:12;;;;;;;3.07;1.33;;;7.60;99.90;;;;;;5151803;27;20287;-74
2024/02/08 11:35:45;;;;;;;3.57;1.20;;;7.40;99.90;;;;;;5152075;27;20280;-74
2024/02/08 11:38:15;;;;;;;2.40;1.30;;;7.20;99.90;;;;;;5151722;27;20200;-73
2024/02/08 11:40:45;;;;;;;2.33;1.07;;;7.30;99.90;;;;;;5151420;27;20200;-74
2024/02/08 11:43:24;;;;;;;2.60;1.33;;;7.40;99.90;;;;;;5151437;27;20600;-74
2024/02/08 11:45:53;;;;;;;2.57;1.10;;;7.60;99.90;;;;;;5143944;27;20225;-73
2024/02/08 11:48:30;;;;;;;3.20;1.47;;;7.70;99.90;;;;;;5132925;27;20209;-72
2024/02/08 11:50:58;;;;;;;2.10;1.10;;;7.70;99.90;;;;;;5140937;27;20231;-73
2024/02/08 11:53:33;;;;;;;2.40;1.27;;;7.70;99.90;;;;;;5148552;27;20667;-72
2024/02/08 11:56:03;;;;;;;3.60;1.57;;;7.60;99.90;;;;;;5142799;27;20626;-73
2024/02/08 11:58:35;;;;;;;2.40;1.30;;;7.80;99.90;;;;;;5140033;27;20204;-74
2024/02/08 12:01:03;;;;;;;3.77;1.43;;;7.90;99.90;;;;;;5142526;27;20198;-73
2024/02/08 12:03:31;;;;;;;6.17;1.50;;;8.00;99.90;;;;;;5142335;27;20275;-73
2024/02/08 12:06:00;;;;;;;2.83;1.27;;;8.10;99.90;;;;;;5146220;27;20623;-72
2024/02/08 12:08:28;;;;;;;4.00;1.70;;;8.20;99.90;;;;;;5132775;27;20197;-72
2024/02/08 12:10:55;;;;;;;4.30;1.43;;;8.40;99.90;;;;;;5135900;27;20231;-72
2024/02/08 12:13:25;;;;;;;2.07;1.13;;;8.50;99.90;;;;;;5147792;27;20287;-72
2024/02/08 12:15:57;;;;;;;12.97;3.37;;;8.50;99.90;;;;;;5150433;27;20228;-73
2024/02/08 12:18:26;;;;;;;6.77;2.90;;;8.60;99.90;;;;;;5150793;27;20225;-73
2024/02/08 12:20:56;;;;;;;3.23;1.97;;;8.60;99.90;;;;;;5150810;27;20257;-73
2024/02/08 12:23:30;;;;;;;5.77;2.00;;;8.60;99.90;;;;;;5150922;27;20291;-73
2024/02/08 12:25:59;;;;;;;2.80;1.60;;;8.70;99.90;;;;;;5150849;27;20232;-73
2024/02/08 12:28:27;;;;;;;2.70;1.70;;;8.90;99.90;;;;;;5151095;27;20287;-73
2024/02/08 12:30:59;;;;;;;3.13;1.63;;;9.00;99.90;;;;;;5150788;27;20236;-72
2024/02/08 12:33:27;;;;;;;2.97;1.43;;;9.10;99.90;;;;;;5150736;27;20283;-72
2024/02/08 12:35:54;;;;;;;3.83;1.87;;;9.30;99.90;;;;;;5150707;27;20319;-72
2024/02/08 12:38:22;;;;;;;3.00;1.70;;;9.50;99.90;;;;;;5142421;27;20651;-72
2024/02/08 12:40:49;;;;;;;3.57;1.87;;;9.50;99.90;;;;;;5137011;27;20211;-73
2024/02/08 12:43:19;;;;;;;4.07;1.63;;;9.30;99.90;;;;;;5136929;27;20201;-73
2024/02/08 12:45:51;;;;;;;2.33;1.43;;;9.50;99.90;;;;;;5136648;27;20233;-74
2024/02/08 12:48:21;;;;;;;4.30;1.60;;;9.60;99.90;;;;;;5136508;27;20283;-76
2024/02/08 12:50:53;;;;;;;4.37;2.60;;;9.70;99.90;;;;;;5136728;27;20204;-75
2024/02/08 12:53:21;;;;;;;5.77;2.20;;;9.90;99.90;;;;;;5136907;27;20240;-74
2024/02/08 12:55:48;;;;;;;3.13;1.53;;;10.20;99.90;;;;;;5136400;27;20690;-75
2024/02/08 12:58:18;;;;;;;2.93;1.57;;;10.30;99.90;;;;;;5136459;27;20200;-73
2024/02/08 13:00:57;;;;;;;4.53;1.50;;;10.40;99.90;;;;;;5136208;27;20204;-74
2024/02/08 13:03:26;;;;;;;3.77;1.90;;;10.60;99.90;;;;;;5136211;27;20236;-74
2024/02/08 13:05:53;;;;;;;4.83;1.80;;;10.60;99.90;;;;;;5136122;27;20220;-75
2024/02/08 13:08:22;;;;;;;3.63;1.60;;;10.70;99.90;;;;;;5136089;27;20285;-75
2024/02/08 13:10:59;;;;;;;4.40;1.93;;;10.80;99.90;;;;;;5136155;27;20201;-74
2024/02/08 13:13:26;;;;;;;7.27;1.37;;;11.00;99.90;;;;;;5136220;27;20207;-74
2024/02/08 13:15:58;;;;;;;3.83;1.03;;;11.10;99.90;;;;;;5136245;27;20578;-74
2024/02/08 13:18:28;;;;;;;6.00;0.97;;;11.20;99.90;;;;;;5136302;27;20209;-74
2024/02/08 13:20:55;;;;;;;4.27;0.93;;;11.20;99.90;;;;;;5135937;27;20205;-73
2024/02/08 13:23:22;;;;;;;5.43;1.10;;;11.30;99.90;;;;;;5136187;27;20207;-75
2024/02/08 13:25:50;;;;;;;5.33;0.80;;;11.40;99.90;;;;;;5135794;27;20257;-75
2024/02/08 13:28:18;;;;;;;3.13;1.00;;;11.50;99.90;;;;;;5135912;27;20289;-73
2024/02/08 13:30:48;;;;;;;1.90;0.60;;;11.50;99.90;;;;;;5135808;27;20205;-74
2024/02/08 13:33:14;;;;;;;7.30;2.20;;;11.50;99.90;;;;;;5135890;27;20221;-73
2024/02/08 13:35:43;;;;;;;3.27;0.70;;;11.50;99.90;;;;;;5136128;27;20316;-74
2024/02/08 13:38:11;;;;;;;5.63;1.10;;;11.50;99.90;;;;;;5135910;27;20200;-74
2024/02/08 13:40:42;;;;;;;3.77;0.80;;;11.50;99.90;;;;;;5136132;27;20201;-74
2024/02/08 13:43:11;;;;;;;2.77;0.83;;;11.50;99.90;;;;;;5135817;27;20250;-73
2024/02/08 13:45:39;;;;;;;5.80;1.10;;;11.50;99.90;;;;;;5135674;27;20225;-73
2024/02/08 13:48:12;;;;;;;3.27;0.73;;;11.40;99.90;;;;;;5135844;27;20283;-73
2024/02/08 13:50:43;;;;;;;3.70;1.10;;;11.50;99.90;;;;;;5134591;27;20287;-75
2024/02/08 13:53:14;;;;;;;6.20;1.00;;;11.40;99.90;;;;;;5135742;27;20208;-74
2024/02/08 13:55:45;;;;;;;3.83;1.00;;;11.50;99.90;;;;;;5135264;27;20560;-74
2024/02/08 13:58:13;;;;;;;3.47;1.17;;;11.50;99.90;;;;;;5135479;27;20283;-74
2024/02/08 14:00:41;;;;;;;2.03;1.20;;;11.50;99.90;;;;;;5135119;27;20292;-72
2024/02/08 14:03:09;;;;;;;2.90;1.07;;;11.50;99.90;;;;;;5135143;27;20201;-73
2024/02/08 14:05:39;;;;;;;5.97;1.03;;;11.50;99.90;;;;;;5135130;27;20690;-73
2024/02/08 14:08:09;;;;;;;9.13;2.60;;;11.50;99.90;;;;;;5135224;27;20232;-73
2024/02/08 14:10:37;;;;;;;4.30;0.90;;;11.50;99.90;;;;;;5134983;27;20250;-73
2024/02/08 14:13:09;;;;;;;9.47;1.40;;;11.50;99.90;;;;;;5134852;27;20207;-72
2024/02/08 14:15:45;;;;;;;4.67;0.97;;;11.50;99.90;;;;;;5134920;27;20311;-74
2024/02/08 14:18:22;;;;;;;3.37;1.10;;;11.50;99.90;;;;;;5135142;27;20216;-73
2024/02/08 14:20:55;;;;;;;4.30;1.30;;;11.50;99.90;;;;;;5135133;27;20258;-74
2024/02/08 14:23:30;;;;;;;4.93;1.13;;;11.60;99.90;;;;;;5134852;27;20295;-72
2024/02/08 14:26:09;;;;;;;7.80;2.70;;;11.60;99.90;;;;;;5102093;22;20318;-79
2024/02/08 14:28:39;;;;;;;5.23;1.50;;;11.50;99.90;;;;;;5056223;28;20277;-79
2024/02/08 14:31:08;;;;;;;5.47;0.97;;;11.60;99.90;;;;;;5056791;28;20299;-79
2024/02/08 14:33:36;;;;;;;4.90;1.40;;;11.60;99.90;;;;;;5055456;28;20266;-79
2024/02/08 14:36:06;;;;;;;3.90;1.00;;;11.60;99.90;;;;;;5056165;28;20311;-79
2024/02/08 14:38:34;;;;;;;5.67;1.47;;;11.60;99.90;;;;;;5055586;28;20216;-78
2024/02/08 14:41:04;;;;;;;5.77;1.80;;;11.80;99.90;;;;;;5055392;28;20290;-78
2024/02/08 14:43:32;;;;;;;2.20;1.00;;;11.70;99.90;;;;;;5056115;28;20204;-79
2024/02/08 14:45:59;;;;;;;5.20;1.40;;;11.70;99.90;;;;;;5055283;28;20591;-79
2024/02/08 14:48:28;;;;;;;2.67;1.10;;;11.80;99.90;;;;;;5054237;28;20567;-78
2024/02/08 14:51:05;;;;;;;5.53;1.30;;;11.80;99.90;;;;;;5054537;28;20211;-78
2024/02/08 14:53:33;;;;;;;6.87;1.60;;;11.80;99.90;;;;;;5054176;28;20207;-79
2024/02/08 14:56:02;;;;;;;1.87;1.10;;;11.80;99.90;;;;;;5054051;28;20227;-79
2024/02/08 14:58:32;;;;;;;5.70;1.80;;;11.90;99.90;;;;;;5054387;28;20227;-79
2024/02/08 15:01:08;;;;;;;5.63;1.20;;;11.90;99.90;;;;;;5054205;28;20212;-79
2024/02/08 15:03:38;;;;;;;4.00;1.60;;;11.90;99.90;;;;;;5053998;28;20586;-79
2024/02/08 15:06:15;;;;;;;3.67;1.43;;;11.90;99.90;;;;;;5053978;28;20582;-79
2024/02/08 15:08:46;;;;;;;1.87;1.03;;;11.90;99.90;;;;;;5053384;28;20228;-79
2024/02/08 15:11:38;;;;;;;4.83;0.90;;;11.90;99.90;;;;;;5053761;28;20204;-79
2024/02/08 15:14:07;;;;;;;4.10;1.17;;;11.90;99.90;;;;;;5053552;28;20231;-79
2024/02/08 15:16:34;;;;;;;3.57;1.23;;;12.00;99.90;;;;;;5053281;28;20235;-79
2024/02/08 15:19:02;;;;;;;5.83;2.37;;;11.90;99.90;;;;;;5053412;28;20272;-79
2024/02/08 15:21:34;;;;;;;7.87;1.33;;;12.00;99.90;;;;;;5053584;28;20718;-79
2024/02/08 15:27:08;;;;;;;7.47;1.73;;;11.90;99.90;;;;;;5153028;27;20544;-79
2024/02/08 15:29:36;;;;;;;3.30;1.37;;;11.90;99.90;;;;;;5152886;27;20567;-79
2024/02/08 15:32:10;;;;;;;3.97;1.10;;;11.90;99.90;;;;;;5153041;27;20584;-79
2024/02/08 15:37:28;;;;;;;4.47;1.30;;;11.90;99.90;;;;;;5154919;27;20301;-79
2024/02/08 15:40:09;;;;;;;7.60;1.40;;;11.90;99.90;;;;;;5152838;27;20310;-79
2024/02/08 15:42:40;;;;;;;4.13;1.93;;;11.90;99.90;;;;;;5152847;27;20204;-79
2024/02/08 15:45:11;;;;;;;6.40;2.03;;;11.90;99.90;;;;;;5152998;27;20666;-79
2024/02/08 15:47:54;;;;;;;8.77;1.00;;;11.90;99.90;;;;;;5153595;27;20536;-78
2024/02/08 15:50:24;;;;;;;4.73;1.27;;;12.00;99.90;;;;;;5153527;27;20199;-79
2024/02/08 15:52:53;;;;;;;2.10;0.80;;;12.00;99.90;;;;;;5152905;27;20726;-79
2024/02/08 15:55:20;;;;;;;11.70;2.03;;;12.00;99.90;;;;;;5152077;27;20228;-79
2024/02/08 15:58:10;;;;;;;1.63;0.80;;;11.90;99.90;;;;;;5152192;27;20311;-80
2024/02/08 16:01:02;;;;;;;3.13;0.80;;;11.90;99.90;;;;;;5151402;27;20212;-79
2024/02/08 16:03:25;;;;;;;4.57;1.20;;;11.90;99.90;;;;;;5151184;27;20669;-79
2024/02/08 16:05:55;;;;;;;4.50;1.50;;;12.00;99.90;;;;;;5151956;27;20228;-79
2024/02/08 16:08:32;;;;;;;5.10;2.23;;;12.00;99.90;;;;;;5152383;27;20215;-79
2024/02/08 16:11:18;;;;;;;3.60;1.00;;;11.90;99.90;;;;;;5151940;27;20249;-79
2024/02/08 16:13:53;;;;;;;5.90;1.63;;;11.90;99.90;;;;;;5151825;27;20235;-79
2024/02/08 16:16:23;;;;;;;7.63;1.63;;;11.90;99.90;;;;;;5152742;27;20245;-79
2024/02/08 16:18:58;;;;;;;3.00;1.50;;;12.00;99.90;;;;;;5154313;27;20204;-80
2024/02/08 16:21:30;;;;;;;5.23;1.27;;;12.00;99.90;;;;;;5155464;27;20203;-79
2024/02/08 16:24:01;;;;;;;5.17;0.90;;;11.90;99.90;;;;;;5154338;27;20200;-80
2024/02/08 16:26:33;;;;;;;4.13;1.20;;;12.00;99.90;;;;;;5153207;27;20233;-80
2024/02/08 16:29:05;;;;;;;5.53;1.40;;;11.90;99.90;;;;;;5154439;27;20211;-80
2024/02/08 16:31:35;;;;;;;5.83;1.10;;;11.90;99.90;;;;;;5154819;27;20551;-79
2024/02/08 16:34:22;;;;;;;5.07;1.10;;;11.90;99.90;;;;;;5155842;27;20266;-80
2024/02/08 16:36:51;;;;;;;4.67;1.20;;;11.90;99.90;;;;;;5154789;27;20251;-79
2024/02/08 16:42:17;;;;;;;7.03;1.30;;;11.80;99.90;;;;;;5139836;27;20667;-80
2024/02/08 16:44:56;;;;;;;6.53;1.17;;;11.80;99.90;;;;;;5146972;27;20319;-79
2024/02/08 16:47:35;;;;;;;7.77;1.20;;;11.70;99.90;;;;;;5147659;27;20250;-79
2024/02/08 16:50:16;;;;;;;3.47;1.30;;;11.70;99.90;;;;;;5148798;27;20201;-79
2024/02/08 16:52:45;;;;;;;9.10;1.40;;;11.70;99.90;;;;;;5146213;27;20207;-79
2024/02/08 16:55:21;;;;;;;5.03;1.23;;;11.60;99.90;;;;;;5143050;27;20293;-80
2024/02/08 16:57:51;;;;;;;8.90;1.60;;;11.60;99.90;;;;;;5144545;27;20249;-80
2024/02/08 17:00:47;;;;;;;4.47;1.30;;;11.50;99.90;;;;;;5145014;27;20201;-79
2024/02/08 17:03:37;;;;;;;4.77;1.80;;;11.50;99.90;;;;;;5143508;27;20640;-79
2024/02/08 17:06:16;;;;;;;5.40;1.50;;;11.50;99.90;;;;;;5146828;27;20228;-79
2024/02/08 17:09:00;;;;;;;5.50;2.10;;;11.50;99.90;;;;;;5144330;27;20230;-79
2024/02/08 17:11:31;;;;;;;5.03;1.70;;;11.50;99.90;;;;;;5142795;27;20224;-80
2024/02/08 17:13:58;;;;;;;5.30;1.50;;;11.50;99.90;;;;;;5142703;27;20216;-79
2024/02/08 17:16:35;;;;;;;4.70;1.53;;;11.40;99.90;;;;;;5143356;27;20220;-80
2024/02/08 17:22:08;;;;;;;10.30;1.47;;;11.40;99.90;;;;;;5137914;27;20208;-79
2024/02/08 17:24:46;;;;;;;4.37;1.43;;;11.40;99.90;;;;;;5137380;27;20200;-79
2024/02/08 17:27:37;;;;;;;9.73;2.53;;;11.40;99.90;;;;;;5136718;27;20243;-80
2024/02/08 17:30:06;;;;;;;4.03;1.40;;;11.40;99.90;;;;;;5136234;27;20205;-80
2024/02/08 17:32:40;;;;;;;4.53;1.90;;;11.50;99.90;;;;;;5136603;27;20197;-79
2024/02/08 17:35:08;;;;;;;5.07;1.80;;;11.50;99.90;;;;;;5136291;27;20279;-80
2024/02/08 17:37:44;;;;;;;5.87;1.40;;;11.50;99.90;;;;;;5136365;27;20272;-80
2024/02/08 17:40:18;;;;;;;5.17;1.97;;;11.50;99.90;;;;;;5136531;27;20200;-80
2024/02/08 17:42:45;;;;;;;6.10;2.27;;;11.50;99.90;;;;;;5136438;27;20528;-79
2024/02/08 17:45:12;;;;;;;5.43;1.50;;;11.50;99.90;;;;;;5135809;27;20566;-80
2024/02/08 17:47:41;;;;;;;6.10;1.87;;;11.50;99.90;;;;;;5135550;27;20197;-80
2024/02/08 17:50:12;;;;;;;7.23;1.90;;;11.50;99.90;;;;;;5133948;27;20208;-80
2024/02/08 17:52:46;;;;;;;7.07;2.40;;;11.50;99.90;;;;;;5136025;27;20666;-79
2024/02/08 17:55:15;;;;;;;16.73;3.07;;;11.50;99.90;;;;;;5139746;27;20225;-78
2024/02/08 17:57:43;;;;;;;10.30;2.40;;;11.50;99.90;;;;;;5140594;27;20261;-77
2024/02/08 18:00:12;;;;;;;6.83;1.53;;;11.50;99.90;;;;;;5140568;27;20197;-79
2024/02/08 18:02:43;;;;;;;5.47;2.30;;;11.60;99.90;;;;;;5130048;27;20200;-78
2024/02/08 18:05:14;;;;;;;9.33;2.30;;;11.60;99.90;;;;;;5120733;27;20244;-78
2024/02/08 18:07:44;;;;;;;6.17;1.90;;;11.60;99.90;;;;;;5128180;27;20671;-78
2024/02/08 18:10:17;;;;;;;9.70;2.30;;;11.60;99.90;;;;;;5136590;27;20571;-78
2024/02/08 18:12:44;;;;;;;5.03;1.67;;;11.50;99.90;;;;;;5137746;27;20692;-78
2024/02/08 18:15:21;;;;;;;5.43;2.63;;;11.50;99.90;;;;;;5137229;27;20231;-78
2024/02/08 18:17:53;;;;;;;3.33;1.60;;;11.50;99.90;;;;;;5136953;27;20646;-78
2024/02/08 18:20:21;;;;;;;6.27;1.80;;;11.50;99.90;;;;;;5136637;27;20201;-78
2024/02/08 18:22:51;;;;;;;4.17;1.30;;;11.40;99.90;;;;;;5138663;27;20250;-79
2024/02/08 18:25:28;;;;;;;9.50;2.33;;;11.40;99.90;;;;;;5134089;27;20222;-78
2024/02/08 18:27:55;;;;;;;10.37;2.67;;;11.40;99.90;;;;;;5126807;27;20292;-79
2024/02/08 18:30:26;;;;;;;7.47;2.97;;;11.30;99.90;;;;;;5133985;27;20200;-80
2024/02/08 18:32:55;;;;;;;4.60;1.30;;;11.30;99.90;;;;;;5125626;27;20205;-78
2024/02/08 18:35:23;;;;;;;6.47;1.60;;;11.30;99.90;;;;;;5129750;27;20580;-78
2024/02/08 18:37:52;;;;;;;7.17;1.73;;;11.30;99.90;;;;;;5135927;27;20201;-77
2024/02/08 18:40:23;;;;;;;8.50;2.47;;;11.20;99.90;;;;;;5137108;27;20250;-79
2024/02/08 18:42:54;;;;;;;4.47;1.80;;;11.20;99.90;;;;;;5138649;27;20276;-78
2024/02/08 18:45:25;;;;;;;7.20;1.90;;;11.20;99.90;;;;;;5128377;27;20220;-78
2024/02/08 18:47:54;;;;;;;13.03;2.37;;;11.20;99.90;;;;;;5136084;27;20282;-79
2024/02/08 18:50:25;;;;;;;4.00;1.30;;;11.20;99.90;;;;;;5138910;27;20288;-79
2024/02/08 18:52:53;;;;;;;3.10;1.50;;;11.10;99.90;;;;;;5137895;27;20228;-77
2024/02/08 18:55:39;;;;;;;6.53;2.13;;;11.10;99.90;;;;;;5137707;27;20236;-79
2024/02/08 18:58:06;;;;;;;6.50;2.03;;;11.20;99.90;;;;;;5136341;27;20197;-78
2024/02/08 19:00:33;;;;;;;12.70;1.80;;;11.10;99.90;;;;;;5135736;27;20393;-78
2024/02/08 19:03:07;;;;;;;10.03;1.80;;;11.10;99.90;;;;;;5134423;27;20726;-78
2024/02/08 19:05:33;;;;;;;6.43;1.97;;;11.10;99.90;;;;;;5133625;27;20308;-78
2024/02/08 19:08:00;;;;;;;15.60;3.77;;;11.10;99.90;;;;;;5133924;27;20228;-79
2024/02/08 19:10:27;;;;;;;4.17;1.83;;;11.10;99.90;;;;;;5134349;27;20288;-77
2024/02/08 19:12:54;;;;;;;8.37;2.80;;;11.10;99.90;;;;;;5138327;27;20200;-77
2024/02/08 19:15:22;;;;;;;5.70;1.53;;;11.10;99.90;;;;;;5128563;27;20303;-78
2024/02/08 19:17:50;;;;;;;7.70;1.47;;;11.10;99.90;;;;;;5120839;27;20204;-79
2024/02/08 19:20:25;;;;;;;12.67;1.77;;;11.10;99.90;;;;;;5133420;27;20236;-81
2024/02/08 19:22:56;;;;;;;4.63;2.30;;;11.10;99.90;;;;;;5132318;27;20253;-79
2024/02/08 19:25:29;;;;;;;10.00;2.10;;;11.10;99.90;;;;;;5125183;27;20294;-79
2024/02/08 19:27:59;;;;;;;5.97;1.80;;;11.00;99.90;;;;;;5122378;27;20239;-78
2024/02/08 19:30:30;;;;;;;13.70;2.40;;;11.00;99.90;;;;;;5130582;27;20283;-81
2024/02/08 19:32:58;;;;;;;7.20;1.60;;;11.00;99.90;;;;;;5131491;27;20265;-77
2024/02/08 19:35:31;;;;;;;7.17;2.90;;;11.00;99.90;;;;;;5129370;27;20315;-77
2024/02/08 19:38:03;;;;;;;4.43;2.30;;;11.00;99.90;;;;;;5124123;28;20571;-79
2024/02/08 19:40:31;;;;;;;10.10;2.17;;;11.00;99.90;;;;;;5124615;27;20283;-76
2024/02/08 19:43:03;;;;;;;4.97;2.17;;;11.00;99.90;;;;;;5131023;27;20208;-76
2024/02/08 19:45:31;;;;;;;10.20;3.23;;;11.00;99.90;;;;;;5128422;27;20263;-77
2024/02/08 19:48:00;;;;;;;7.90;1.40;;;11.00;99.90;;;;;;5130625;27;20313;-75
2024/02/08 19:50:31;;;;;;;7.50;2.20;;;11.00;99.90;;;;;;5130168;27;20235;-75
2024/02/08 19:53:05;;;;;;;4.30;1.50;;;11.00;99.90;;;;;;5131205;27;20201;-77
2024/02/08 19:55:37;;;;;;;6.50;1.80;;;11.00;99.90;;;;;;5121700;27;20228;-75
2024/02/08 19:58:07;;;;;;;6.27;1.70;;;10.90;99.90;;;;;;5130832;27;20323;-75
2024/02/08 20:00:37;;;;;;;7.00;2.80;;;10.90;99.90;;;;;;5132751;27;20201;-73
2024/02/08 20:03:07;;;;;;;12.00;1.90;;;10.90;99.90;;;;;;5131635;27;20261;-73
2024/02/08 20:05:37;;;;;;;11.90;2.30;;;10.90;99.90;;;;;;5124164;27;20221;-75
2024/02/08 20:08:10;;;;;;;10.57;2.50;;;10.90;99.90;;;;;;5132648;27;20327;-75
2024/02/08 20:10:37;;;;;;;10.97;2.83;;;11.00;99.90;;;;;;5136471;27;20550;-76
2024/02/08 20:13:11;;;;;;;6.00;1.93;;;11.00;99.90;;;;;;5135873;27;20288;-72
2024/02/08 20:15:42;;;;;;;5.73;1.73;;;11.00;99.90;;;;;;5133663;27;20273;-74
2024/02/08 20:18:09;;;;;;;5.90;2.00;;;11.00;99.90;;;;;;5136149;27;20216;-74
2024/02/08 20:20:38;;;;;;;5.80;2.47;;;11.00;99.90;;;;;;5136761;27;20201;-76
2024/02/08 20:23:13;;;;;;;7.50;1.90;;;11.00;99.90;;;;;;5136460;27;20558;-76
2024/02/08 20:25:43;;;;;;;3.93;1.63;;;11.00;99.90;;;;;;5133419;27;20270;-73
2024/02/08 20:28:12;;;;;;;6.00;1.67;;;11.00;99.90;;;;;;5123064;27;20232;-76
2024/02/08 20:30:41;;;;;;;3.63;1.43;;;11.00;99.90;;;;;;5136080;27;20604;-74
2024/02/08 20:33:13;;;;;;;4.57;1.43;;;11.00;99.90;;;;;;5136457;27;20655;-77
2024/02/08 20:35:41;;;;;;;3.93;1.53;;;11.00;99.90;;;;;;5132246;27;20225;-74
2024/02/08 20:38:11;;;;;;;8.80;1.83;;;11.00;99.90;;;;;;5136535;27;20234;-73
2024/02/08 20:40:40;;;;;;;5.37;1.60;;;10.90;99.90;;;;;;5129248;27;20197;-77
2024/02/08 20:43:10;;;;;;;5.97;1.50;;;11.00;99.90;;;;;;5127332;27;20204;-75
2024/02/08 20:45:37;;;;;;;5.27;1.70;;;11.00;99.90;;;;;;5133642;27;20223;-79
2024/02/08 20:48:08;;;;;;;6.03;2.23;;;11.00;99.90;;;;;;5135947;27;20232;-77
2024/02/08 20:50:39;;;;;;;10.23;2.40;;;11.10;99.90;;;;;;5135644;27;20629;-73
2024/02/08 20:53:09;;;;;;;8.00;2.03;;;11.10;99.90;;;;;;5135927;27;20203;-77
2024/02/08 20:55:38;;;;;;;6.17;1.50;;;11.00;99.90;;;;;;5135374;27;20217;-74
2024/02/08 20:58:10;;;;;;;10.50;2.00;;;11.10;99.90;;;;;;5136245;27;20227;-75
2024/02/08 21:00:40;;;;;;;5.30;1.70;;;11.10;99.90;;;;;;5128946;27;20229;-74
2024/02/08 21:03:09;;;;;;;4.53;1.73;;;11.10;99.90;;;;;;5129780;27;20201;-73
2024/02/08 21:05:39;;;;;;;3.80;1.47;;;11.10;99.90;;;;;;5135603;27;20224;-75
2024/02/08 21:08:08;;;;;;;3.27;1.50;;;11.10;99.90;;;;;;5135510;27;20755;-74
2024/02/08 21:10:36;;;;;;;11.60;1.93;;;11.00;99.90;;;;;;5135663;27;20279;-73
2024/02/08 21:13:04;;;;;;;6.67;1.70;;;11.00;99.90;;;;;;5135210;27;20296;-74
2024/02/08 21:15:30;;;;;;;5.50;1.87;;;11.00;99.90;;;;;;5135652;27;20306;-74
2024/02/08 21:17:57;;;;;;;6.33;1.77;;;11.10;99.90;;;;;;5135277;27;20197;-74
2024/02/08 21:20:24;;;;;;;6.73;1.57;;;11.10;99.90;;;;;;5135464;27;20197;-74
2024/02/08 21:22:52;;;;;;;5.10;1.67;;;11.10;99.90;;;;;;5134917;27;20639;-75
2024/02/08 21:25:20;;;;;;;5.70;1.53;;;11.10;99.90;;;;;;5135595;27;20548;-75
2024/02/08 21:27:51;;;;;;;7.40;1.50;;;11.00;99.90;;;;;;5134378;27;20256;-73
2024/02/08 21:30:20;;;;;;;4.27;1.40;;;11.10;99.90;;;;;;5135223;27;20251;-74
2024/02/08 21:32:48;;;;;;;9.27;2.83;;;11.20;99.90;;;;;;5134581;27;20224;-75
2024/02/08 21:35:15;;;;;;;4.37;1.83;;;11.10;99.90;;;;;;5135628;27;20217;-74
2024/02/08 21:37:43;;;;;;;5.47;1.90;;;11.10;99.90;;;;;;5135052;27;20634;-73
2024/02/08 21:40:11;;;;;;;4.80;1.73;;;11.20;99.90;;;;;;5135315;27;20310;-73
2024/02/08 21:42:39;;;;;;;8.80;2.27;;;11.20;99.90;;;;;;5134962;27;20284;-74
2024/02/08 21:45:12;;;;;;;12.67;1.90;;;11.10;99.90;;;;;;5134909;27;20225;-75
2024/02/08 21:47:39;;;;;;;7.93;1.80;;;11.20;99.90;;;;;;5121873;27;20220;-75
2024/02/08 21:50:07;;;;;;;4.10;1.50;;;11.20;99.90;;;;;;5134665;27;20292;-77
2024/02/08 21:52:36;;;;;;;9.77;2.53;;;11.20;99.90;;;;;;5135129;27;20287;-75
2024/02/08 21:55:06;;;;;;;5.30;1.67;;;11.20;99.90;;;;;;5134217;27;20586;-74
2024/02/08 21:57:33;;;;;;;3.57;1.50;;;11.30;99.90;;;;;;5135336;27;20201;-74
2024/02/08 22:00:10;;;;;;;12.17;2.10;;;11.30;99.90;;;;;;5134337;27;20284;-74